createdAt,value
2023-04-22T00:01:54.332Z,81.27
2023-04-22T00:04:24.652Z,81.49
2023-04-22T00:06:58.443Z,81.54
2023-04-22T00:09:29.821Z,81.92
2023-04-22T00:12:06.462Z,82.25
2023-04-22T00:14:37.378Z,81.72
2023-04-22T00:17:12.095Z,81.62
2023-04-22T00:19:45.170Z,80.72
2023-04-22T00:22:16.104Z,80.38
2023-04-22T00:24:46.542Z,81.13
2023-04-22T00:27:18.764Z,81.62
2023-04-22T00:29:50.013Z,81.26
2023-04-22T00:32:20.580Z,81.82
2023-04-22T00:34:51.108Z,81.81
2023-04-22T00:37:23.440Z,81.73
2023-04-22T00:39:54.485Z,82.27
2023-04-22T00:42:25.155Z,82.04
2023-04-22T00:44:55.594Z,81.79
2023-04-22T00:47:30.492Z,81.78
2023-04-22T00:50:03.612Z,82.01
2023-04-22T00:52:34.381Z,81.98
2023-04-22T00:55:04.438Z,82.19
2023-04-22T00:57:36.982Z,82.60
2023-04-22T01:00:11.256Z,82.62
2023-04-22T01:02:42.713Z,83.05
2023-04-22T01:05:13.546Z,83.50
2023-04-22T01:07:46.893Z,83.77
2023-04-22T01:10:18.378Z,83.54
2023-04-22T01:12:48.621Z,83.85
2023-04-22T01:15:18.799Z,83.85
2023-04-22T01:17:50.246Z,83.25
2023-04-22T01:20:21.130Z,83.30
2023-04-22T01:22:55.144Z,83.80
2023-04-22T01:25:30.138Z,82.84
2023-04-22T01:28:01.885Z,84.56
2023-04-22T01:30:32.690Z,85.14
2023-04-22T01:33:03.784Z,85.14
2023-04-22T01:35:38.133Z,85.40
2023-04-22T01:38:14.294Z,85.35
2023-04-22T01:40:46.392Z,85.56
2023-04-22T01:43:18.876Z,85.95
2023-04-22T01:45:49.358Z,86.31
2023-04-22T01:48:19.841Z,86.21
2023-04-22T01:50:50.929Z,85.87
2023-04-22T01:53:21.981Z,85.61
2023-04-22T01:55:55.295Z,86.00
2023-04-22T01:58:26.401Z,85.81
2023-04-22T02:00:57.354Z,85.51
2023-04-22T02:03:27.815Z,85.78
2023-04-22T02:05:58.612Z,85.68
2023-04-22T02:08:29.425Z,85.22
2023-04-22T02:11:02.155Z,84.79
2023-04-22T02:13:40.098Z,84.75
2023-04-22T02:16:10.812Z,84.56
2023-04-22T02:18:42.685Z,85.02
2023-04-22T02:21:14.525Z,85.22
2023-04-22T02:23:44.459Z,85.01
2023-04-22T02:26:14.212Z,84.79
2023-04-22T02:28:44.796Z,84.94
2023-04-22T02:31:14.752Z,85.11
2023-04-22T02:33:45.577Z,84.97
2023-04-22T02:36:15.407Z,85.32
2023-04-22T02:38:46.689Z,85.62
2023-04-22T02:41:19.043Z,86.05
2023-04-22T02:43:50.657Z,86.30
2023-04-22T02:46:21.041Z,86.10
2023-04-22T02:48:51.529Z,86.97
2023-04-22T02:51:23.544Z,87.38
2023-04-22T02:53:54.980Z,87.95
2023-04-22T02:56:25.448Z,88.16
2023-04-22T02:58:55.178Z,88.60
2023-04-22T03:01:25.976Z,88.74
2023-04-22T03:04:00.864Z,88.27
2023-04-22T03:06:32.224Z,88.05
2023-04-22T03:09:02.672Z,88.74
2023-04-22T03:11:32.458Z,87.93
2023-04-22T03:14:02.815Z,87.30
2023-04-22T03:16:33.689Z,87.72
2023-04-22T03:19:07.468Z,88.15
2023-04-22T03:21:38.151Z,88.46
2023-04-22T03:24:10.232Z,88.05
2023-04-22T03:26:45.374Z,87.96
2023-04-22T03:29:16.604Z,87.79
2023-04-22T03:31:48.355Z,87.48
2023-04-22T03:34:18.989Z,87.39
2023-04-22T03:36:49.091Z,87.52
2023-04-22T03:39:21.077Z,87.34
2023-04-22T03:41:52.734Z,87.64
2023-04-22T03:44:23.502Z,87.89
2023-04-22T03:46:54.876Z,87.85
2023-04-22T03:49:30.745Z,88.40
2023-04-22T03:52:02.081Z,88.19
2023-04-22T03:54:32.534Z,88.27
2023-04-22T03:57:04.348Z,88.28
2023-04-22T03:59:35.338Z,87.96
2023-04-22T04:02:05.243Z,87.44
2023-04-22T04:04:36.271Z,86.65
2023-04-22T04:07:09.420Z,86.67
2023-04-22T04:09:40.284Z,86.64
2023-04-22T04:12:10.839Z,86.31
2023-04-22T04:14:45.487Z,86.20
2023-04-22T04:17:21.423Z,86.66
2023-04-22T04:19:53.105Z,87.56
2023-04-22T04:22:24.036Z,87.68
2023-04-22T04:24:59.704Z,87.72
2023-04-22T04:27:34.804Z,87.37
2023-04-22T04:30:05.602Z,87.50
2023-04-22T04:32:49.648Z,87.43
2023-04-22T04:35:21.451Z,87.44
2023-04-22T04:37:56.901Z,87.08
2023-04-22T04:40:30.925Z,86.58
2023-04-22T04:43:14.216Z,85.91
2023-04-22T04:45:56.665Z,85.70
2023-04-22T04:48:37.209Z,84.66
2023-04-22T04:51:11.253Z,84.47
2023-04-22T04:54:01.417Z,84.89
2023-04-22T04:56:37.591Z,84.87
2023-04-22T04:59:08.457Z,85.03
2023-04-22T05:01:40.953Z,84.90
2023-04-22T05:04:14.857Z,85.28
2023-04-22T05:06:46.584Z,85.28
2023-04-22T05:09:18.765Z,85.58
2023-04-22T05:11:52.372Z,85.97
2023-04-22T05:14:24.055Z,86.44
2023-04-22T05:16:54.281Z,86.38
2023-04-22T05:19:24.768Z,86.68
2023-04-22T05:21:57.725Z,87.62
2023-04-22T05:24:27.881Z,88.15
2023-04-22T05:27:00.635Z,88.85
2023-04-22T05:29:33.002Z,89.24
2023-04-22T05:32:06.037Z,89.84
2023-04-22T05:34:37.504Z,90.55
2023-04-22T05:37:09.431Z,91.13
2023-04-22T05:39:42.709Z,91.48
2023-04-22T05:42:14.261Z,92.10
2023-04-22T05:44:47.782Z,91.97
2023-04-22T05:47:19.399Z,92.32
2023-04-22T05:49:49.923Z,92.95
2023-04-22T05:52:29.032Z,92.99
2023-04-22T05:55:09.466Z,93.28
2023-04-22T05:57:40.469Z,93.36
2023-04-22T06:00:21.991Z,93.33
2023-04-22T06:03:07.129Z,93.00
2023-04-22T06:05:38.799Z,92.71
2023-04-22T06:08:09.415Z,93.03
2023-04-22T06:10:39.237Z,93.35
2023-04-22T06:13:11.819Z,93.49
2023-04-22T06:15:42.894Z,93.82
2023-04-22T06:18:13.666Z,94.09
2023-04-22T06:20:43.650Z,94.50
2023-04-22T06:23:15.226Z,94.37
2023-04-22T06:25:46.242Z,94.57
2023-04-22T06:28:16.643Z,94.94
2023-04-22T06:30:47.647Z,95.04
2023-04-22T06:33:19.136Z,95.13
2023-04-22T06:35:49.781Z,95.31
2023-04-22T06:38:19.914Z,95.44
2023-04-22T06:41:09.852Z,95.52
2023-04-22T06:43:45.710Z,95.79
2023-04-22T06:46:41.692Z,95.67
2023-04-22T06:49:40.918Z,95.94
2023-04-22T06:52:31.496Z,96.00
2023-04-22T06:55:04.588Z,96.23
2023-04-22T06:57:36.682Z,96.32
2023-04-22T07:00:10.559Z,96.56
2023-04-22T07:02:43.057Z,96.39
2023-04-22T07:05:13.909Z,96.48
2023-04-22T07:07:44.955Z,96.56
2023-04-22T07:10:20.326Z,96.71
2023-04-22T07:13:13.429Z,96.61
2023-04-22T07:15:43.838Z,96.84
2023-04-22T07:18:15.443Z,96.90
2023-04-22T07:20:45.625Z,97.09
2023-04-22T07:23:15.419Z,96.91
2023-04-22T07:25:46.038Z,97.10
2023-04-22T07:28:16.948Z,97.62
2023-04-22T07:30:47.295Z,97.36
2023-04-22T07:33:17.019Z,96.92
2023-04-22T07:35:48.407Z,95.78
2023-04-22T07:38:19.171Z,95.67
2023-04-22T07:40:49.729Z,95.71
2023-04-22T07:43:19.476Z,96.03
2023-04-22T07:45:49.732Z,96.07
2023-04-22T07:48:19.571Z,96.29
2023-04-22T07:50:50.768Z,96.38
2023-04-22T07:53:21.765Z,96.56
2023-04-22T07:55:51.922Z,97.21
2023-04-22T07:58:22.241Z,96.49
2023-04-22T08:00:52.675Z,96.99
2023-04-22T08:03:23.891Z,97.14
2023-04-22T08:05:55.364Z,97.62
2023-04-22T08:08:25.799Z,97.57
2023-04-22T08:10:55.524Z,97.83
2023-04-22T08:13:32.330Z,98.02
2023-04-22T08:16:08.469Z,98.24
2023-04-22T08:18:39.185Z,98.04
2023-04-22T08:21:09.375Z,98.38
2023-04-22T08:23:39.988Z,98.02
2023-04-22T08:26:16.141Z,98.22
2023-04-22T08:28:48.158Z,98.37
2023-04-22T08:31:18.903Z,98.18
2023-04-22T08:33:49.718Z,98.28
2023-04-22T08:36:20.033Z,98.21
2023-04-22T08:38:51.943Z,98.09
2023-04-22T08:41:25.804Z,98.26
2023-04-22T08:43:56.184Z,97.99
2023-04-22T08:46:27.332Z,97.79
2023-04-22T08:49:10.192Z,97.58
2023-04-22T08:51:41.437Z,97.52
2023-04-22T08:54:13.123Z,97.71
2023-04-22T08:56:44.997Z,97.89
2023-04-22T08:59:16.917Z,97.88
2023-04-22T09:01:51.520Z,97.64
2023-04-22T09:04:22.056Z,97.57
2023-04-22T09:06:51.964Z,97.66
2023-04-22T09:09:23.034Z,97.57
2023-04-22T09:11:53.805Z,97.74
2023-04-22T09:14:24.958Z,97.94
2023-04-22T09:16:55.103Z,97.86
2023-04-22T09:19:27.054Z,98.18
2023-04-22T09:22:01.398Z,97.95
2023-04-22T09:24:32.135Z,98.05
2023-04-22T09:27:04.731Z,98.64
2023-04-22T09:29:34.804Z,98.54
2023-04-22T09:32:12.865Z,97.95
2023-04-22T09:34:56.949Z,97.93
2023-04-22T09:37:36.021Z,98.41
2023-04-22T09:40:20.146Z,98.92
2023-04-22T09:42:56.809Z,98.91
2023-04-22T09:45:32.284Z,98.94
2023-04-22T09:48:10.022Z,99.03
2023-04-22T09:50:43.041Z,98.91
2023-04-22T09:53:16.836Z,98.72
2023-04-22T09:55:53.333Z,98.86
2023-04-22T09:58:28.741Z,98.85
2023-04-22T10:01:00.657Z,98.76
2023-04-22T10:03:35.649Z,98.64
2023-04-22T10:06:08.897Z,98.63
2023-04-22T10:08:40.381Z,98.25
2023-04-22T10:11:11.132Z,98.35
2023-04-22T10:13:41.860Z,98.68
2023-04-22T10:16:12.106Z,98.26
2023-04-22T10:18:42.943Z,97.89
2023-04-22T10:21:14.571Z,97.55
2023-04-22T10:23:51.060Z,96.91
2023-04-22T10:26:56.195Z,96.41
2023-04-22T10:29:41.227Z,95.74
2023-04-22T10:32:11.915Z,95.48
2023-04-22T10:34:42.174Z,94.86
2023-04-22T10:37:15.468Z,94.57
2023-04-22T10:40:12.604Z,94.20
2023-04-22T10:42:44.608Z,93.88
2023-04-22T10:45:16.727Z,93.49
2023-04-22T10:47:47.975Z,93.29
2023-04-22T10:50:30.409Z,92.92
2023-04-22T10:53:24.149Z,92.64
2023-04-22T10:55:57.406Z,92.45
2023-04-22T10:58:29.194Z,92.44
2023-04-22T11:01:04.242Z,92.27
2023-04-22T11:03:35.216Z,92.02
2023-04-22T11:06:20.978Z,91.59
2023-04-22T11:09:08.894Z,90.81
2023-04-22T11:11:38.930Z,87.12
2023-04-22T11:14:10.862Z,84.81
2023-04-22T11:16:42.946Z,78.07
2023-04-22T11:19:14.281Z,66.79
2023-04-22T11:21:45.507Z,61.65
2023-04-22T11:24:21.772Z,59.81
2023-04-22T11:26:53.380Z,57.96
2023-04-22T11:29:24.549Z,56.59
2023-04-22T11:31:54.707Z,56.61
2023-04-22T11:34:24.582Z,54.79
2023-04-22T11:36:55.015Z,59.05
2023-04-22T11:39:26.397Z,60.65
2023-04-22T11:41:58.547Z,60.52
2023-04-22T11:44:28.610Z,58.94
2023-04-22T11:46:59.122Z,60.83
2023-04-22T11:49:29.423Z,59.09
2023-04-22T11:51:59.928Z,56.58
2023-04-22T11:54:35.748Z,57.33
2023-04-22T11:57:12.853Z,59.64
2023-04-22T11:59:44.169Z,61.87
2023-04-22T12:02:14.929Z,58.50
2023-04-22T12:04:45.949Z,59.10
2023-04-22T12:07:17.195Z,57.41
2023-04-22T12:09:47.639Z,58.41
2023-04-22T12:12:19.471Z,57.82
2023-04-22T12:14:50.202Z,61.51
2023-04-22T12:17:25.762Z,60.72
2023-04-22T12:19:57.335Z,58.27
2023-04-22T12:22:34.575Z,56.06
2023-04-22T12:25:05.073Z,55.11
2023-04-22T12:27:35.174Z,51.59
2023-04-22T12:30:07.250Z,54.02
2023-04-22T12:32:37.732Z,52.42
2023-04-22T12:35:09.765Z,52.04
2023-04-22T12:37:40.039Z,48.44
2023-04-22T12:40:12.205Z,47.53
2023-04-22T12:42:42.753Z,48.60
2023-04-22T12:45:13.735Z,49.30
2023-04-22T12:47:44.404Z,48.76
2023-04-22T12:50:14.241Z,48.30
2023-04-22T12:52:44.577Z,49.94
2023-04-22T12:55:15.369Z,51.27
2023-04-22T12:57:47.809Z,49.11
2023-04-22T13:00:19.032Z,44.81
2023-04-22T13:02:51.753Z,47.24
2023-04-22T13:05:23.003Z,49.24
2023-04-22T13:08:05.706Z,51.01
2023-04-22T13:10:37.918Z,46.40
2023-04-22T13:13:18.427Z,48.60
2023-04-22T13:15:54.834Z,50.60
2023-04-22T13:18:25.994Z,52.92
2023-04-22T13:20:58.066Z,48.14
2023-04-22T13:23:29.357Z,48.36
2023-04-22T13:26:00.112Z,48.64
2023-04-22T13:28:30.471Z,52.29
2023-04-22T13:31:00.577Z,51.85
2023-04-22T13:33:31.408Z,49.33
2023-04-22T13:36:03.080Z,49.33
2023-04-22T13:38:33.368Z,49.73
2023-04-22T13:41:03.637Z,51.52
2023-04-22T13:43:33.959Z,46.58
2023-04-22T13:46:04.452Z,47.13
2023-04-22T13:48:35.803Z,47.43
2023-04-22T13:51:05.861Z,48.21
2023-04-22T13:53:35.610Z,49.39
2023-04-22T13:56:05.778Z,52.48
2023-04-22T13:58:36.033Z,47.83
2023-04-22T14:01:08.890Z,50.31
2023-04-22T14:03:41.361Z,51.87
2023-04-22T14:06:12.482Z,52.79
2023-04-22T14:08:42.729Z,54.77
2023-04-22T14:11:14.147Z,55.45
2023-04-22T14:13:46.780Z,52.87
2023-04-22T14:16:18.947Z,54.39
2023-04-22T14:18:50.381Z,54.93
2023-04-22T14:21:21.426Z,51.65
2023-04-22T14:23:51.532Z,51.62
2023-04-22T14:26:21.483Z,54.17
2023-04-22T14:28:51.959Z,50.63
2023-04-22T14:31:25.837Z,49.23
2023-04-22T14:33:56.501Z,49.06
2023-04-22T14:36:26.287Z,49.28
2023-04-22T14:38:58.075Z,46.53
2023-04-22T14:41:28.832Z,47.80
2023-04-22T14:44:00.214Z,49.03
2023-04-22T14:46:31.574Z,51.33
2023-04-22T14:49:01.996Z,51.42
2023-04-22T14:51:34.049Z,52.60
2023-04-22T14:54:07.204Z,54.64
2023-04-22T14:56:37.621Z,55.28
2023-04-22T14:59:07.623Z,55.11
2023-04-22T15:01:38.400Z,53.28
2023-04-22T15:04:09.917Z,52.81
2023-04-22T15:06:41.775Z,53.46
2023-04-22T15:09:12.555Z,54.30
2023-04-22T15:11:42.389Z,53.35
2023-04-22T15:14:14.869Z,53.25
2023-04-22T15:16:47.617Z,52.79
2023-04-22T15:19:17.889Z,49.37
2023-04-22T15:21:48.380Z,51.89
2023-04-22T15:24:18.989Z,52.92
2023-04-22T15:26:50.476Z,55.68
2023-04-22T15:29:20.574Z,52.14
2023-04-22T15:31:51.912Z,54.87
2023-04-22T15:34:25.053Z,56.78
2023-04-22T15:36:55.751Z,53.79
2023-04-22T15:39:26.428Z,53.85
2023-04-22T15:41:58.094Z,54.37
2023-04-22T15:44:28.492Z,54.13
2023-04-22T15:47:03.047Z,53.87
2023-04-22T15:49:35.086Z,55.15
2023-04-22T15:52:05.856Z,55.63
2023-04-22T15:54:36.071Z,55.50
2023-04-22T15:57:06.277Z,52.78
2023-04-22T15:59:38.150Z,53.16
2023-04-22T16:02:09.398Z,51.19
2023-04-22T16:04:39.618Z,50.43
2023-04-22T16:07:11.349Z,50.85
2023-04-22T16:09:42.266Z,50.46
2023-04-22T16:12:12.056Z,51.60
2023-04-22T16:14:42.744Z,54.05
2023-04-22T16:17:13.597Z,55.05
2023-04-22T16:19:44.413Z,54.02
2023-04-22T16:22:14.245Z,54.18
2023-04-22T16:24:45.036Z,54.66
2023-04-22T16:27:17.560Z,52.70
2023-04-22T16:29:48.182Z,48.49
2023-04-22T16:32:18.183Z,48.96
2023-04-22T16:34:48.460Z,47.17
2023-04-22T16:37:18.661Z,48.86
2023-04-22T16:39:49.602Z,46.93
2023-04-22T16:42:19.847Z,45.97
2023-04-22T16:44:49.742Z,44.75
2023-04-22T16:47:20.460Z,45.62
2023-04-22T16:49:51.051Z,45.63
2023-04-22T16:52:21.655Z,47.09
2023-04-22T16:54:52.901Z,45.91
2023-04-22T16:57:23.230Z,47.01
2023-04-22T16:59:54.093Z,45.23
2023-04-22T17:02:25.567Z,45.25
2023-04-22T17:04:55.364Z,43.32
2023-04-22T17:07:25.617Z,42.72
2023-04-22T17:09:56.064Z,45.14
2023-04-22T17:12:27.784Z,40.75
2023-04-22T17:14:58.019Z,42.34
2023-04-22T17:17:28.080Z,42.78
2023-04-22T17:19:59.150Z,44.23
2023-04-22T17:22:30.064Z,41.98
2023-04-22T17:25:01.655Z,40.35
2023-04-22T17:27:32.661Z,42.17
2023-04-22T17:30:02.960Z,41.01
2023-04-22T17:32:33.503Z,42.20
2023-04-22T17:35:06.677Z,42.22
2023-04-22T17:37:36.595Z,38.53
2023-04-22T17:40:09.697Z,39.93
2023-04-22T17:42:45.923Z,39.22
2023-04-22T17:45:18.157Z,38.27
2023-04-22T17:47:49.744Z,37.22
2023-04-22T17:50:20.832Z,35.42
2023-04-22T17:52:51.345Z,36.05
2023-04-22T17:55:22.580Z,35.37
2023-04-22T17:57:53.178Z,35.34
2023-04-22T18:00:23.656Z,36.31
2023-04-22T18:02:58.470Z,42.66
2023-04-22T18:05:29.814Z,39.87
2023-04-22T18:08:03.523Z,38.95
2023-04-22T18:10:33.588Z,43.58
2023-04-22T18:13:04.130Z,46.26
2023-04-22T18:15:38.676Z,43.17
2023-04-22T18:18:08.609Z,42.35
2023-04-22T18:20:38.756Z,43.26
2023-04-22T18:23:11.103Z,42.41
2023-04-22T18:25:41.561Z,40.06
2023-04-22T18:28:11.957Z,38.03
2023-04-22T18:30:42.438Z,36.84
2023-04-22T18:33:13.414Z,37.56
2023-04-22T18:35:44.546Z,32.94
2023-04-22T18:38:14.402Z,34.70
2023-04-22T18:40:45.139Z,42.94
2023-04-22T18:43:15.718Z,40.68
2023-04-22T18:45:46.563Z,36.92
2023-04-22T18:48:16.371Z,37.68
2023-04-22T18:50:47.029Z,37.76
2023-04-22T18:53:17.185Z,39.65
2023-04-22T18:55:47.586Z,38.32
2023-04-22T18:58:18.898Z,37.07
2023-04-22T19:00:49.104Z,36.35
2023-04-22T19:03:20.517Z,36.29
2023-04-22T19:05:52.223Z,35.93
2023-04-22T19:08:22.775Z,35.74
2023-04-22T19:10:52.571Z,39.69
2023-04-22T19:13:29.675Z,44.14
2023-04-22T19:16:01.335Z,48.92
2023-04-22T19:18:32.748Z,51.33
2023-04-22T19:21:03.799Z,50.95
2023-04-22T19:23:38.247Z,51.08
2023-04-22T19:26:10.739Z,51.93
2023-04-22T19:28:48.134Z,53.62
2023-04-22T19:31:19.236Z,55.19
2023-04-22T19:33:50.002Z,52.43
2023-04-22T19:36:21.675Z,53.41
2023-04-22T19:38:52.927Z,54.81
2023-04-22T19:41:23.507Z,55.52
2023-04-22T19:43:53.436Z,54.16
2023-04-22T19:46:24.174Z,55.49
2023-04-22T19:48:56.793Z,56.06
2023-04-22T19:51:28.302Z,55.81
2023-04-22T19:53:59.885Z,55.30
2023-04-22T19:56:31.000Z,57.74
2023-04-22T19:59:02.273Z,57.32
2023-04-22T20:01:33.383Z,57.89
2023-04-22T20:04:05.220Z,59.25
2023-04-22T20:06:36.528Z,59.31
2023-04-22T20:09:08.355Z,60.41
2023-04-22T20:11:38.904Z,59.12
2023-04-22T20:14:11.871Z,58.77
2023-04-22T20:16:44.248Z,64.35
2023-04-22T20:19:15.889Z,60.17
2023-04-22T20:21:49.059Z,57.32
2023-04-22T20:24:22.482Z,63.88
2023-04-22T20:26:54.317Z,66.09
2023-04-22T20:29:25.708Z,68.90
2023-04-22T20:31:56.957Z,69.68
2023-04-22T20:34:27.912Z,70.45
2023-04-22T20:37:00.393Z,69.83
2023-04-22T20:39:31.864Z,70.65
2023-04-22T20:42:04.272Z,67.25
2023-04-22T20:44:38.594Z,69.02
2023-04-22T20:47:10.045Z,70.24
2023-04-22T20:49:41.733Z,70.39
2023-04-22T20:52:13.397Z,71.42
2023-04-22T20:54:45.722Z,72.06
2023-04-22T20:57:17.116Z,70.37
2023-04-22T20:59:48.019Z,69.95
2023-04-22T21:02:20.585Z,70.03
2023-04-22T21:04:51.890Z,69.48
2023-04-22T21:07:26.129Z,68.56
2023-04-22T21:09:56.754Z,69.04
2023-04-22T21:12:27.166Z,69.10
2023-04-22T21:15:01.503Z,70.54
2023-04-22T21:17:40.131Z,71.21
2023-04-22T21:20:15.157Z,71.83
2023-04-22T21:22:46.713Z,72.07
2023-04-22T21:25:23.569Z,71.35
2023-04-22T21:27:54.653Z,73.14
2023-04-22T21:30:25.602Z,73.33
2023-04-22T21:32:57.404Z,73.97
2023-04-22T21:35:28.158Z,75.96
2023-04-22T21:37:58.565Z,75.27
2023-04-22T21:40:29.570Z,76.37
2023-04-22T21:43:02.154Z,76.32
2023-04-22T21:45:34.332Z,77.13
2023-04-22T21:48:05.238Z,76.63
2023-04-22T21:50:38.765Z,76.86
2023-04-22T21:53:09.225Z,77.25
2023-04-22T21:55:39.087Z,77.01
2023-04-22T21:58:09.808Z,76.65
2023-04-22T22:00:49.259Z,76.21
2023-04-22T22:03:20.959Z,76.06
2023-04-22T22:05:51.430Z,75.63
2023-04-22T22:08:22.484Z,75.21
2023-04-22T22:10:53.267Z,75.23
2023-04-22T22:13:25.392Z,74.29
2023-04-22T22:15:57.284Z,75.02
2023-04-22T22:18:27.868Z,75.94
2023-04-22T22:20:59.170Z,75.64
2023-04-22T22:23:32.483Z,75.15
2023-04-22T22:26:02.826Z,75.01
2023-04-22T22:28:33.274Z,74.98
2023-04-22T22:31:04.774Z,74.31
2023-04-22T22:33:35.752Z,74.43
2023-04-22T22:36:05.644Z,74.89
2023-04-22T22:38:36.632Z,75.27
2023-04-22T22:41:07.413Z,75.85
2023-04-22T22:43:38.321Z,76.26
2023-04-22T22:46:08.515Z,76.79
2023-04-22T22:48:39.314Z,77.29
2023-04-22T22:51:11.477Z,77.76
2023-04-22T22:53:43.347Z,78.49
2023-04-22T22:56:16.252Z,78.32
2023-04-22T22:58:49.618Z,78.83
2023-04-22T23:01:21.386Z,79.44
2023-04-22T23:03:52.357Z,80.37
2023-04-22T23:06:23.085Z,81.11
2023-04-22T23:08:53.148Z,82.04
2023-04-22T23:11:24.738Z,82.53
2023-04-22T23:13:55.005Z,83.08
2023-04-22T23:16:25.867Z,83.39
2023-04-22T23:18:57.795Z,83.38
2023-04-22T23:21:29.373Z,83.76
2023-04-22T23:24:02.500Z,84.21
2023-04-22T23:26:33.350Z,84.26
2023-04-22T23:29:04.140Z,84.76
2023-04-22T23:31:36.975Z,84.91
2023-04-22T23:34:08.406Z,85.26
2023-04-22T23:36:39.358Z,85.61
2023-04-22T23:39:11.036Z,86.05
2023-04-22T23:41:42.278Z,86.42
2023-04-22T23:44:13.602Z,87.02
2023-04-22T23:46:44.436Z,87.35
2023-04-22T23:49:14.818Z,87.83
2023-04-22T23:51:46.547Z,87.84
2023-04-22T23:54:18.978Z,88.26
2023-04-22T23:56:50.233Z,88.55
2023-04-22T23:59:21.027Z,88.69
